Margaretsville, North Carolina
Current Conditions -  °F | °C
As of 2:35 PM on Thursday 23 Oct 2014 (Local Time) from KEMV Reporting Station
Broken Clouds Broken Clouds  
Wind Chill: 66°   Ceiling: 4700
Heat Index: 66°   Visibility: 10mi
Dew Point: 46°   Wind: 12mph
Humidity: 49%   Direction: 290°WNW
Pressure: 29.9"   Gusts: 18mph
Location:  36.5285°N, 77.2853°W
Report Text: KEMV 231835Z AUTO 29010G16KT 10SM BKN047 19/08 A2990 RMK AO2
Loading
Personal Weather Stations






























Interactive Weather Map
Tropical Storm Tracking
New forecast layout! Learn more

10-Day Weather Forecast

Advertisements
Track Severe Weather on mobile